createdAt,value
2023-03-17T00:00:18.329Z,4.82
2023-03-17T00:03:27.682Z,4.72
2023-03-17T00:06:35.438Z,4.57
2023-03-17T00:09:41.090Z,5.10
2023-03-17T00:12:47.362Z,4.90
2023-03-17T00:15:59.693Z,5.03
2023-03-17T00:22:18.241Z,4.95
2023-03-17T00:25:27.603Z,5.00
2023-03-17T00:28:32.811Z,4.55
2023-03-17T00:31:39.932Z,4.78
2023-03-17T00:34:45.625Z,5.30
2023-03-17T00:37:54.052Z,4.95
2023-03-17T00:40:59.678Z,5.65
2023-03-17T00:44:05.628Z,5.70
2023-03-17T00:47:12.234Z,5.05
2023-03-17T00:50:24.688Z,4.70
2023-03-17T00:53:30.138Z,4.97
2023-03-17T00:56:39.138Z,4.75
2023-03-17T00:59:44.817Z,6.15
2023-03-17T01:02:51.530Z,4.57
2023-03-17T01:05:58.557Z,4.80
2023-03-17T01:09:05.427Z,5.80
2023-03-17T01:12:14.491Z,5.35
2023-03-17T01:15:22.183Z,5.18
2023-03-17T01:18:27.997Z,5.03
2023-03-17T01:21:33.183Z,5.30
2023-03-17T01:24:40.413Z,6.75
2023-03-17T01:27:47.573Z,5.00
2023-03-17T01:30:52.906Z,5.60
2023-03-17T01:33:58.967Z,5.10
2023-03-17T01:37:04.549Z,4.32
2023-03-17T01:40:15.696Z,4.88
2023-03-17T01:43:28.539Z,4.93
2023-03-17T01:46:36.946Z,5.07
2023-03-17T01:49:43.376Z,4.82
2023-03-17T01:52:49.452Z,4.40
2023-03-17T01:55:57.682Z,5.32
2023-03-17T01:59:07.704Z,4.70
2023-03-17T02:02:19.148Z,5.18
2023-03-17T02:05:28.190Z,4.68
2023-03-17T02:08:33.621Z,5.20
2023-03-17T02:11:40.936Z,4.50
2023-03-17T02:14:46.989Z,4.88
2023-03-17T02:17:52.843Z,5.10
2023-03-17T02:20:58.868Z,5.25
2023-03-17T02:24:13.850Z,5.20
2023-03-17T02:27:24.440Z,5.07
2023-03-17T02:30:33.410Z,4.70
2023-03-17T02:33:39.363Z,5.22
2023-03-17T02:36:45.247Z,5.00
2023-03-17T02:39:50.801Z,4.65
2023-03-17T02:42:56.794Z,4.38
2023-03-17T02:46:06.679Z,5.38
2023-03-17T02:49:13.126Z,4.50
2023-03-17T02:52:18.511Z,4.43
2023-03-17T02:55:24.312Z,4.72
2023-03-17T02:58:29.518Z,4.53
2023-03-17T03:01:35.790Z,4.20
2023-03-17T03:04:42.352Z,4.13
2023-03-17T03:07:47.891Z,5.07
2023-03-17T03:10:55.164Z,4.57
2023-03-17T03:14:01.470Z,4.15
2023-03-17T03:17:06.788Z,4.05
2023-03-17T03:20:13.605Z,3.55
2023-03-17T03:23:19.216Z,4.10
2023-03-17T03:26:24.848Z,3.65
2023-03-17T03:29:30.300Z,3.75
2023-03-17T03:32:35.647Z,3.92
2023-03-17T03:35:43.201Z,4.15
2023-03-17T03:38:48.496Z,4.20
2023-03-17T03:41:58.696Z,5.15
2023-03-17T03:45:04.836Z,4.30
2023-03-17T03:48:10.826Z,3.97
2023-03-17T03:51:16.477Z,4.70
2023-03-17T03:54:22.280Z,4.32
2023-03-17T03:57:28.128Z,4.60
2023-03-17T04:00:33.947Z,4.65
2023-03-17T04:03:41.149Z,5.05
2023-03-17T04:06:46.687Z,6.10
2023-03-17T04:09:52.572Z,5.80
2023-03-17T04:12:58.012Z,4.85
2023-03-17T04:16:03.664Z,5.03
2023-03-17T04:19:09.320Z,5.07
2023-03-17T04:22:15.187Z,5.20
2023-03-17T04:25:22.147Z,5.15
2023-03-17T04:28:27.770Z,5.38
2023-03-17T04:31:33.414Z,4.93
2023-03-17T04:34:39.142Z,4.90
2023-03-17T04:37:45.769Z,4.38
2023-03-17T04:40:52.110Z,4.70
2023-03-17T04:43:57.249Z,9.38
2023-03-17T04:47:03.409Z,7.88
2023-03-17T04:50:10.625Z,5.45
2023-03-17T04:53:16.204Z,5.03
2023-03-17T04:56:21.943Z,4.40
2023-03-17T04:59:27.942Z,4.60
2023-03-17T05:02:33.663Z,4.57
2023-03-17T05:05:39.307Z,4.40
2023-03-17T05:08:45.238Z,4.15
2023-03-17T05:11:52.265Z,4.47
2023-03-17T05:14:57.950Z,3.88
2023-03-17T05:18:05.031Z,4.70
2023-03-17T05:21:10.831Z,4.28
2023-03-17T05:24:16.617Z,4.43
2023-03-17T05:27:22.933Z,4.40
2023-03-17T05:30:28.224Z,3.95
2023-03-17T05:33:33.894Z,4.05
2023-03-17T05:36:39.295Z,3.55
2023-03-17T05:39:44.436Z,3.33
2023-03-17T05:42:51.202Z,3.63
2023-03-17T05:45:56.840Z,3.65
2023-03-17T05:49:02.454Z,3.05
2023-03-17T05:52:08.429Z,5.10
2023-03-17T05:55:14.905Z,3.55
2023-03-17T05:58:21.265Z,5.50
2023-03-17T06:01:28.261Z,3.97
2023-03-17T06:04:33.815Z,3.92
2023-03-17T06:07:51.713Z,3.97
2023-03-17T06:11:01.034Z,3.63
2023-03-17T06:14:07.854Z,3.78
2023-03-17T06:17:13.617Z,3.88
2023-03-17T06:20:19.984Z,3.90
2023-03-17T06:23:26.206Z,3.60
2023-03-17T06:26:31.820Z,3.67
2023-03-17T06:29:38.268Z,3.67
2023-03-17T06:32:44.399Z,3.85
2023-03-17T06:35:50.001Z,3.13
2023-03-17T06:38:55.546Z,3.50
2023-03-17T06:42:01.918Z,4.28
2023-03-17T06:45:09.652Z,5.63
2023-03-17T06:48:15.206Z,3.58
2023-03-17T06:51:20.912Z,3.53
2023-03-17T06:54:26.841Z,4.50
2023-03-17T06:57:32.642Z,4.32
2023-03-17T07:00:40.657Z,4.38
2023-03-17T07:03:45.993Z,3.88
2023-03-17T07:06:52.112Z,5.50
2023-03-17T07:09:58.543Z,4.75
2023-03-17T07:13:05.436Z,4.05
2023-03-17T07:16:14.323Z,4.05
2023-03-17T07:19:19.897Z,3.58
2023-03-17T07:22:25.691Z,3.70
2023-03-17T07:25:31.763Z,3.88
2023-03-17T07:28:38.441Z,5.13
2023-03-17T07:31:45.326Z,4.22
2023-03-17T07:34:51.051Z,4.15
2023-03-17T07:37:56.396Z,4.03
2023-03-17T07:41:02.248Z,3.70
2023-03-17T07:44:09.999Z,4.20
2023-03-17T07:47:15.403Z,3.90
2023-03-17T07:50:21.141Z,3.60
2023-03-17T07:53:26.711Z,3.80
2023-03-17T07:56:33.243Z,3.97
2023-03-17T07:59:40.335Z,3.40
2023-03-17T08:02:53.674Z,3.60
2023-03-17T08:06:06.645Z,4.18
2023-03-17T08:09:12.996Z,4.47
2023-03-17T08:12:18.882Z,4.07
2023-03-17T08:15:24.337Z,4.13
2023-03-17T08:18:29.871Z,3.67
2023-03-17T08:21:35.402Z,3.13
2023-03-17T08:24:43.429Z,2.60
2023-03-17T08:27:49.242Z,2.53
2023-03-17T08:30:55.034Z,2.95
2023-03-17T08:34:01.262Z,3.53
2023-03-17T08:37:10.072Z,3.03
2023-03-17T08:40:20.163Z,2.53
2023-03-17T08:43:25.848Z,3.00
2023-03-17T08:46:33.262Z,2.90
2023-03-17T08:49:38.815Z,2.90
2023-03-17T08:52:45.964Z,1.42
2023-03-17T08:55:51.370Z,1.17
2023-03-17T08:58:57.328Z,1.95
2023-03-17T09:02:03.220Z,1.92
2023-03-17T09:05:12.930Z,1.70
2023-03-17T09:08:18.533Z,1.63
2023-03-17T09:11:27.734Z,3.13
2023-03-17T09:14:42.957Z,1.88
2023-03-17T09:17:49.610Z,2.08
2023-03-17T09:20:55.378Z,2.42
2023-03-17T09:24:02.691Z,1.83
2023-03-17T09:27:08.546Z,1.98
2023-03-17T09:30:14.727Z,1.60
2023-03-17T09:33:20.306Z,2.05
2023-03-17T09:36:26.237Z,2.20
2023-03-17T09:39:32.165Z,1.77
2023-03-17T09:42:58.383Z,2.28
2023-03-17T09:46:22.077Z,2.03
2023-03-17T09:49:42.458Z,2.20
2023-03-17T09:52:50.360Z,3.75
2023-03-17T09:55:59.188Z,2.50
2023-03-17T09:59:33.667Z,3.22
2023-03-17T10:02:39.178Z,1.92
2023-03-17T10:05:45.273Z,2.95
2023-03-17T10:09:17.143Z,2.30
2023-03-17T10:12:48.760Z,2.60
2023-03-17T10:16:18.134Z,2.60
2023-03-17T10:19:33.147Z,3.45
2023-03-17T10:22:51.196Z,2.80
2023-03-17T10:26:01.066Z,2.85
2023-03-17T10:29:24.168Z,2.10
2023-03-17T10:32:32.469Z,2.60
2023-03-17T10:35:39.884Z,2.90
2023-03-17T10:38:54.602Z,3.13
2023-03-17T10:42:35.966Z,3.72
2023-03-17T10:45:54.690Z,2.00
2023-03-17T10:49:17.148Z,2.70
2023-03-17T10:52:30.534Z,2.35
2023-03-17T10:55:38.680Z,2.38
2023-03-17T10:58:47.037Z,3.00
2023-03-17T11:02:14.723Z,2.13
2023-03-17T11:05:23.962Z,2.50
2023-03-17T11:08:35.892Z,2.17
2023-03-17T11:11:48.230Z,1.80
2023-03-17T11:15:02.227Z,2.10
2023-03-17T11:18:31.356Z,2.33
2023-03-17T11:22:01.599Z,2.33
2023-03-17T11:25:19.753Z,2.45
2023-03-17T11:28:36.150Z,1.95
2023-03-17T11:31:50.630Z,2.30
2023-03-17T11:35:09.452Z,2.60
2023-03-17T11:38:28.922Z,2.58
2023-03-17T11:41:45.181Z,2.88
2023-03-17T11:45:05.236Z,2.80
2023-03-17T11:48:56.339Z,2.15
2023-03-17T11:52:33.006Z,2.75
2023-03-17T11:55:49.127Z,2.10
2023-03-17T11:59:04.601Z,2.03
2023-03-17T12:02:32.867Z,2.25
2023-03-17T12:05:39.833Z,2.17
2023-03-17T12:08:46.088Z,2.20
2023-03-17T12:11:52.201Z,2.60
2023-03-17T12:14:59.863Z,2.97
2023-03-17T12:18:27.812Z,2.92
2023-03-17T12:21:52.983Z,3.30
2023-03-17T12:25:19.513Z,3.00
2023-03-17T12:28:28.908Z,3.00
2023-03-17T12:31:45.282Z,3.25
2023-03-17T12:34:57.483Z,2.70
2023-03-17T12:38:10.892Z,3.10
2023-03-17T12:41:59.040Z,2.80
2023-03-17T12:45:26.832Z,2.85
2023-03-17T12:49:09.157Z,3.05
2023-03-17T12:52:28.611Z,3.70
2023-03-17T12:55:53.409Z,3.53
2023-03-17T12:59:09.017Z,3.25
2023-03-17T13:02:36.552Z,3.50
2023-03-17T13:05:47.216Z,3.30
2023-03-17T13:09:11.934Z,4.47
2023-03-17T13:12:44.901Z,3.22
2023-03-17T13:16:11.248Z,3.13
2023-03-17T13:19:31.304Z,3.40
2023-03-17T13:22:41.461Z,3.35
2023-03-17T13:25:54.995Z,3.65
2023-03-17T13:29:23.016Z,3.75
2023-03-17T13:32:28.275Z,3.90
2023-03-17T13:36:15.798Z,4.82
2023-03-17T13:39:46.358Z,3.92
2023-03-17T13:43:10.379Z,3.42
2023-03-17T13:46:27.735Z,4.20
2023-03-17T13:49:37.034Z,3.25
2023-03-17T13:53:08.912Z,3.38
2023-03-17T13:56:38.736Z,3.83
2023-03-17T13:59:59.162Z,4.25
2023-03-17T14:03:16.602Z,3.97
2023-03-17T14:06:28.218Z,4.05
2023-03-17T14:12:47.253Z,3.75
2023-03-17T14:16:11.392Z,3.00
2023-03-17T14:19:28.483Z,4.40
2023-03-17T14:22:42.018Z,3.58
2023-03-17T14:25:50.952Z,3.42
2023-03-17T14:29:01.327Z,3.95
2023-03-17T14:32:16.111Z,3.60
2023-03-17T14:35:21.852Z,3.90
2023-03-17T14:38:36.123Z,4.45
2023-03-17T14:41:41.956Z,3.67
2023-03-17T14:44:47.605Z,4.20
2023-03-17T14:47:53.191Z,4.40
2023-03-17T14:51:07.061Z,4.00
2023-03-17T14:54:20.836Z,3.72
2023-03-17T14:57:31.241Z,3.53
2023-03-17T15:00:43.608Z,4.07
2023-03-17T15:03:56.840Z,3.70
2023-03-17T15:07:05.076Z,3.70
2023-03-17T15:10:18.693Z,4.28
2023-03-17T15:13:27.329Z,3.60
2023-03-17T15:16:36.428Z,4.40
2023-03-17T15:19:46.411Z,3.65
2023-03-17T15:23:03.506Z,4.68
2023-03-17T15:26:30.717Z,4.55
2023-03-17T15:29:36.651Z,4.53
2023-03-17T15:32:42.356Z,3.92
2023-03-17T15:35:48.737Z,4.35
2023-03-17T15:38:54.272Z,4.10
2023-03-17T15:42:00.562Z,4.30
2023-03-17T15:45:07.013Z,4.18
2023-03-17T15:48:24.040Z,4.30
2023-03-17T15:51:29.308Z,4.18
2023-03-17T15:54:34.706Z,4.85
2023-03-17T15:57:40.019Z,3.95
2023-03-17T16:00:52.440Z,3.53
2023-03-17T16:03:57.846Z,4.10
2023-03-17T16:07:03.351Z,4.10
2023-03-17T16:10:29.699Z,3.97
2023-03-17T16:13:35.769Z,3.97
2023-03-17T16:16:46.026Z,4.18
2023-03-17T16:19:52.983Z,3.67
2023-03-17T16:23:06.577Z,4.22
2023-03-17T16:26:16.225Z,3.97
2023-03-17T16:29:22.169Z,5.10
2023-03-17T16:32:28.190Z,4.20
2023-03-17T16:35:33.858Z,6.15
2023-03-17T16:38:39.033Z,4.70
2023-03-17T16:41:47.161Z,4.72
2023-03-17T16:44:52.734Z,4.68
2023-03-17T16:47:59.060Z,4.40
2023-03-17T16:51:05.732Z,5.32
2023-03-17T16:54:11.863Z,7.30
2023-03-17T16:57:17.395Z,4.18
2023-03-17T17:00:26.292Z,4.78
2023-03-17T17:03:32.283Z,4.20
2023-03-17T17:06:37.265Z,5.03
2023-03-17T17:09:43.072Z,4.00
2023-03-17T17:12:49.356Z,4.78
2023-03-17T17:15:56.187Z,4.07
2023-03-17T17:19:04.149Z,4.45
2023-03-17T17:22:11.681Z,4.20
2023-03-17T17:25:18.082Z,4.47
2023-03-17T17:28:24.584Z,4.88
2023-03-17T17:31:30.170Z,5.10
2023-03-17T17:34:35.775Z,5.07
2023-03-17T17:37:41.981Z,6.60
2023-03-17T17:40:47.819Z,7.93
2023-03-17T17:43:54.256Z,7.68
2023-03-17T17:46:59.703Z,8.55
2023-03-17T17:50:07.161Z,8.13
2023-03-17T17:53:13.617Z,7.97
2023-03-17T17:56:19.094Z,8.70
2023-03-17T17:59:24.542Z,8.38
2023-03-17T18:02:29.860Z,8.05
2023-03-17T18:05:36.345Z,8.02
2023-03-17T18:08:43.821Z,7.95
2023-03-17T18:11:49.373Z,8.52
2023-03-17T18:14:54.583Z,7.43
2023-03-17T18:18:00.249Z,56.17
2023-03-17T18:21:06.520Z,91.57
2023-03-17T18:24:12.263Z,68.35
2023-03-17T18:27:17.753Z,54.10
2023-03-17T18:30:31.912Z,30.35
2023-03-17T18:33:39.449Z,24.42
2023-03-17T18:36:47.013Z,14.25
2023-03-17T18:40:09.988Z,6.95
2023-03-17T18:43:18.011Z,7.60
2023-03-17T18:46:23.600Z,9.05
2023-03-17T18:49:29.239Z,7.43
2023-03-17T18:52:37.381Z,7.57
2023-03-17T18:55:42.692Z,8.43
2023-03-17T18:58:48.635Z,8.32
2023-03-17T19:01:54.478Z,9.25
2023-03-17T19:04:59.779Z,7.90
2023-03-17T19:08:04.837Z,8.45
2023-03-17T19:11:13.745Z,8.38
2023-03-17T19:14:19.598Z,12.07
2023-03-17T19:17:25.050Z,9.88
2023-03-17T19:20:31.870Z,8.02
2023-03-17T19:23:38.466Z,7.40
2023-03-17T19:26:43.960Z,7.95
2023-03-17T19:29:49.294Z,7.32
2023-03-17T19:32:54.930Z,6.32
2023-03-17T19:36:02.870Z,6.75
2023-03-17T19:39:11.139Z,6.20
2023-03-17T19:42:17.797Z,7.65
2023-03-17T19:45:24.236Z,5.47
2023-03-17T19:48:29.525Z,5.45
2023-03-17T19:51:35.445Z,6.18
2023-03-17T19:54:44.971Z,4.72
2023-03-17T19:57:51.230Z,5.30
2023-03-17T20:00:56.712Z,6.03
2023-03-17T20:04:02.400Z,6.15
2023-03-17T20:07:08.112Z,6.32
2023-03-17T20:10:13.523Z,4.97
2023-03-17T20:13:18.840Z,5.80
2023-03-17T20:16:24.124Z,6.13
2023-03-17T20:19:29.528Z,5.35
2023-03-17T20:22:35.388Z,6.18
2023-03-17T20:25:42.355Z,5.95
2023-03-17T20:28:48.166Z,6.25
2023-03-17T20:31:53.545Z,6.97
2023-03-17T20:34:59.173Z,13.80
2023-03-17T20:38:04.574Z,15.13
2023-03-17T20:41:15.258Z,12.65
2023-03-17T20:44:21.771Z,11.40
2023-03-17T20:47:27.349Z,9.35
2023-03-17T20:50:33.583Z,8.02
2023-03-17T20:53:39.183Z,6.00
2023-03-17T20:56:46.052Z,6.32
2023-03-17T20:59:52.219Z,5.65
2023-03-17T21:02:58.215Z,6.32
2023-03-17T21:06:03.875Z,5.25
2023-03-17T21:09:10.223Z,5.63
2023-03-17T21:12:19.183Z,7.10
2023-03-17T21:15:24.953Z,6.60
2023-03-17T21:18:30.712Z,6.15
2023-03-17T21:21:36.106Z,5.65
2023-03-17T21:24:41.531Z,6.80
2023-03-17T21:27:47.071Z,6.90
2023-03-17T21:30:52.448Z,6.65
2023-03-17T21:33:58.189Z,5.95
2023-03-17T21:37:04.414Z,7.03
2023-03-17T21:40:13.108Z,6.60
2023-03-17T21:43:18.975Z,6.55
2023-03-17T21:46:25.871Z,7.15
2023-03-17T21:49:31.535Z,6.88
2023-03-17T21:52:37.437Z,7.50
2023-03-17T21:55:44.326Z,6.40
2023-03-17T21:58:50.156Z,6.90
2023-03-17T22:01:55.607Z,7.30
2023-03-17T22:05:01.249Z,7.55
2023-03-17T22:08:07.193Z,6.55
2023-03-17T22:11:16.365Z,7.45
2023-03-17T22:14:22.331Z,8.75
2023-03-17T22:17:27.611Z,8.70
2023-03-17T22:20:33.319Z,8.93
2023-03-17T22:23:42.722Z,8.20
2023-03-17T22:26:49.184Z,7.97
2023-03-17T22:29:54.870Z,8.77
2023-03-17T22:33:01.047Z,7.88
2023-03-17T22:36:07.104Z,8.77
2023-03-17T22:39:12.641Z,7.68
2023-03-17T22:42:18.544Z,9.35
2023-03-17T22:45:24.225Z,9.45
2023-03-17T22:48:29.958Z,8.50
2023-03-17T22:51:36.870Z,8.55
2023-03-17T22:54:42.323Z,9.30
2023-03-17T22:57:48.116Z,8.48
2023-03-17T23:00:56.517Z,8.85
2023-03-17T23:04:02.584Z,9.48
2023-03-17T23:07:08.056Z,8.43
2023-03-17T23:10:15.997Z,8.10
2023-03-17T23:13:22.569Z,9.30
2023-03-17T23:16:28.179Z,9.30
2023-03-17T23:19:33.652Z,8.38
2023-03-17T23:22:39.180Z,8.32
2023-03-17T23:25:44.984Z,8.88
2023-03-17T23:28:50.279Z,8.48
2023-03-17T23:31:56.319Z,9.02
2023-03-17T23:35:01.589Z,9.57
2023-03-17T23:38:06.939Z,8.55
2023-03-17T23:41:13.408Z,9.30
2023-03-17T23:44:18.638Z,9.10
2023-03-17T23:47:24.073Z,9.02
2023-03-17T23:50:29.877Z,9.40
2023-03-17T23:53:35.993Z,8.75
2023-03-17T23:56:41.638Z,8.50
2023-03-17T23:59:47.649Z,9.50
